Online since October of 2007


Active alerts

Marquette
  Details for Marquette Special Weather Statement

Bigbaywx more information Bigbaywx


mount mesnard more information Mount Mesnard


visit our other weather sites:

Template documentation
and downloads

And another site


CBI


nearby metar reports

   
KSAW - Sawyer, Michigan
updated: Dec 9 2019 10:18 pm
light snow, overcast  
light snow, overcast  
   wind: nnw 16.1 mph
wind: nnw 16.1 mph
temperature: 15.8°F
wind chill: -0.4°F
dew point: 12.2°F
humidity: 86%
barometer: 29.55 inHg
clouds: overcast
visibility: 4 mi
cloud details: mostly cloudy 579 m,
overcast 793 m
KSAW 100318Z AUTO 33014KT 4SM -SN BKN019 OVC026 M09/M11 A2955 RMK AO2 T10881113
KESC - Escanaba, Michigan
updated: Dec 9 2019 9:56 pm
light snow, overcast  
light snow, overcast  
   wind: wnw 13.8 mph<br />Gust to 13.8 mph
wind: wnw 13.8 mph
Gust to 13.8 mph
temperature: 19.4°F
wind chill: 6.8°F
dew point: 15.8°F
humidity: 86%
barometer: 29.58 inHg
clouds: overcast
visibility: 8 mi
cloud details: few clouds 610 m,
mostly cloudy 1402 m,
overcast 3353 m
KESC 100256Z AUTO 30012G19KT 8SM -SN FEW020 BKN046 OVC110 M07/M09 A2958 RMK AO2 SLP028 P0000 60000 T10721094 51044 FZRANO
KIMT - Iron Mountain, MI
updated: Dec 9 2019 9:54 pm
partly cloudy  
partly cloudy  
   wind: nnw 15 mph<br />Gust to 15 mph
wind: nnw 15 mph
Gust to 15 mph
temperature: 15.8°F
wind chill: 1.4°F
dew point: 8.6°F
humidity: 73%
barometer: 29.58 inHg
clouds: partly cloudy
visibility: 10 mi
cloud details: partly cloudy 3048 m
KIMT 100254Z AUTO 34013G19KT 10SM SCT100 M09/M13 A2958 RMK AO2 PK WND 32030/0209 UPE51SNB01E03B08E18 SLP035 P0000 60000 T10941133 51034
KGRB - Green Bay, WI
updated: Dec 9 2019 9:53 pm
overcast  
overcast  
   wind: nw 11.5 mph<br />Gust to 11.5 mph
wind: nw 11.5 mph
Gust to 11.5 mph
temperature: 24.8°F
wind chill: 14°F
dew point: 17.6°F
humidity: 74%
barometer: 29.63 inHg
clouds: overcast
visibility: 10 mi
cloud details: few clouds 732 m,
overcast 1463 m
KGRB 100253Z 32010G19KT 10SM FEW024 OVC048 M04/M08 A2963 RMK AO2 SNE06 PRESRR SLP044 P0000 60000 T10391083 51055
KDET - Detroit, MI
updated: Dec 9 2019 10:35 pm
mostly cloudy  
mostly cloudy  
   wind: wsw 17.3 mph<br />Gust to 17.3 mph
wind: wsw 17.3 mph
Gust to 17.3 mph
temperature: 50°F
wind chill: 44.6°F
dew point: 42.8°F
humidity: 76%
barometer: 29.48 inHg
clouds: mostly cloudy
visibility: 10 mi
cloud details: mostly cloudy 884 m,
mostly cloudy 1158 m
KDET 100335Z 24015G27KT 10SM BKN029 BKN038 10/06 A2948 RMK AO2 PK WND 24032/0306 T01000061
 

script developed by  Saratoga-weather.org adapted for the template by  Weerstation Leuven

you find our weather info also at:

Weather Underground

midwestern weather network

WeatherlinkIP

Citizen Weather Observer Program (CWOP)

equipment we use:

weather-station
Davis VP2

weather-program
Davis Weatherlink.Com

Davis VP2

Davis Weatherlink.Com